Time;durP1;ratioP1;P1;durP2;ratioP2;P2;SDS_P1;SDS_P2;PMS_P1;PMS_P2;Temp;Humidity;BMP_temperature;BMP_pressure;BME280_temperature;BME280_humidity;BME280_pressure;Samples;Min_cycle;Max_cycle;Signal;HPM_P1;HPM_P2
2022/11/22 00:01:03;;;;;;;5.07;3.83;;;;;;;;;;5071247;28;20487;-76
2022/11/22 00:03:30;;;;;;;3.40;3.13;;;;;;;;;;5069691;28;20485;-77
2022/11/22 00:05:57;;;;;;;7.97;3.57;;;;;;;;;;5072241;28;20455;-77
2022/11/22 00:08:24;;;;;;;6.03;3.77;;;;;;;;;;5070340;28;20444;-76
2022/11/22 00:10:51;;;;;;;4.10;3.70;;;;;;;;;;5070255;28;20442;-75
2022/11/22 00:13:20;;;;;;;4.93;3.63;;;;;;;;;;5070889;28;20925;-76
2022/11/22 00:15:57;;;;;;;6.30;4.40;;;;;;;;;;5074742;28;20446;-76
2022/11/22 00:18:24;;;;;;;4.13;3.70;;;;;;;;;;5070312;28;20442;-76
2022/11/22 00:20:52;;;;;;;5.23;3.63;;;;;;;;;;5070904;28;20485;-75
2022/11/22 00:23:19;;;;;;;4.40;3.70;;;;;;;;;;5073294;28;20465;-76
2022/11/22 00:25:46;;;;;;;4.50;4.10;;;;;;;;;;5073957;28;20929;-75
2022/11/22 00:28:13;;;;;;;5.23;3.60;;;;;;;;;;5071229;28;20449;-76
2022/11/22 00:30:41;;;;;;;6.40;3.53;;;;;;;;;;5074508;28;20435;-76
2022/11/22 00:33:08;;;;;;;6.07;3.73;;;;;;;;;;5078449;28;20947;-76
2022/11/22 00:35:35;;;;;;;4.03;3.73;;;;;;;;;;5077963;28;20448;-77
2022/11/22 00:38:03;;;;;;;5.57;3.57;;;;;;;;;;5075382;28;20449;-77
2022/11/22 00:40:30;;;;;;;3.53;3.27;;;;;;;;;;5075270;28;20475;-76
2022/11/22 00:42:57;;;;;;;3.13;2.90;;;;;;;;;;5074364;28;20446;-77
2022/11/22 00:45:24;;;;;;;3.23;2.83;;;;;;;;;;5073799;28;20468;-76
2022/11/22 00:47:52;;;;;;;2.93;2.73;;;;;;;;;;5075392;28;20448;-75
2022/11/22 00:50:19;;;;;;;3.43;3.13;;;;;;;;;;5075698;28;20455;-77
2022/11/22 00:52:46;;;;;;;4.13;3.57;;;;;;;;;;5088828;28;20441;-76
2022/11/22 00:55:13;;;;;;;6.23;3.50;;;;;;;;;;5097708;28;20452;-76
2022/11/22 00:57:40;;;;;;;3.20;3.00;;;;;;;;;;5096932;28;20534;-76
2022/11/22 01:00:08;;;;;;;3.70;3.30;;;;;;;;;;5098087;28;20424;-76
2022/11/22 01:02:35;;;;;;;3.07;2.60;;;;;;;;;;5090460;28;20444;-76
2022/11/22 01:05:04;;;;;;;3.40;3.10;;;;;;;;;;5077385;28;20469;-76
2022/11/22 01:07:31;;;;;;;3.93;3.00;;;;;;;;;;5075752;28;20452;-76
2022/11/22 01:09:58;;;;;;;2.83;2.63;;;;;;;;;;5075276;28;20453;-76
2022/11/22 01:12:25;;;;;;;3.13;2.83;;;;;;;;;;5074196;28;20450;-76
2022/11/22 01:14:52;;;;;;;3.20;2.90;;;;;;;;;;5053296;28;20474;-76
2022/11/22 01:17:19;;;;;;;2.70;2.50;;;;;;;;;;5059004;28;20455;-76
2022/11/22 01:19:46;;;;;;;3.20;3.00;;;;;;;;;;5053327;28;20452;-76
2022/11/22 01:22:15;;;;;;;3.40;2.90;;;;;;;;;;5052659;28;20485;-75
2022/11/22 01:24:42;;;;;;;3.50;2.93;;;;;;;;;;5052288;28;20481;-76
2022/11/22 01:27:09;;;;;;;3.03;2.73;;;;;;;;;;5052861;28;20443;-75
2022/11/22 01:29:36;;;;;;;4.23;3.40;;;;;;;;;;5052117;28;20753;-76
2022/11/22 01:32:03;;;;;;;5.73;3.03;;;;;;;;;;5052627;28;20463;-77
2022/11/22 01:34:30;;;;;;;3.60;2.30;;;;;;;;;;5051692;28;20469;-76
2022/11/22 01:36:57;;;;;;;3.23;2.90;;;;;;;;;;5053300;28;20457;-76
2022/11/22 01:39:26;;;;;;;3.50;3.20;;;;;;;;;;5056980;28;20453;-76
2022/11/22 01:41:53;;;;;;;2.90;2.70;;;;;;;;;;5052220;28;20493;-76
2022/11/22 01:44:21;;;;;;;3.63;3.43;;;;;;;;;;5052013;28;20470;-76
2022/11/22 01:46:49;;;;;;;3.73;3.10;;;;;;;;;;5052134;28;20461;-75
2022/11/22 01:49:21;;;;;;;3.60;3.27;;;;;;;;;;5052033;28;20815;-76
2022/11/22 01:51:52;;;;;;;3.63;3.10;;;;;;;;;;5057291;28;20454;-76
2022/11/22 01:54:20;;;;;;;3.53;3.23;;;;;;;;;;5065794;28;20519;-76
2022/11/22 01:56:50;;;;;;;3.90;3.20;;;;;;;;;;5071082;28;20448;-76
2022/11/22 01:59:19;;;;;;;3.20;2.90;;;;;;;;;;5071804;28;20464;-77
2022/11/22 02:01:46;;;;;;;4.30;3.20;;;;;;;;;;5071853;28;20478;-75
2022/11/22 02:04:15;;;;;;;5.43;3.30;;;;;;;;;;5071228;28;20475;-77
2022/11/22 02:06:47;;;;;;;3.67;2.70;;;;;;;;;;5071742;28;20446;-76
2022/11/22 02:09:15;;;;;;;3.67;2.73;;;;;;;;;;5071713;28;20447;-76
2022/11/22 02:11:46;;;;;;;3.53;2.90;;;;;;;;;;5071895;28;20442;-75
2022/11/22 02:14:16;;;;;;;3.50;3.20;;;;;;;;;;5071402;28;20466;-75
2022/11/22 02:16:44;;;;;;;3.20;2.97;;;;;;;;;;5076246;28;20450;-75
2022/11/22 02:19:14;;;;;;;3.87;2.87;;;;;;;;;;5074780;28;20447;-77
2022/11/22 02:21:41;;;;;;;3.90;3.10;;;;;;;;;;5071958;28;20484;-77
2022/11/22 02:24:11;;;;;;;2.93;2.73;;;;;;;;;;5074725;28;20486;-76
2022/11/22 02:26:40;;;;;;;3.60;3.00;;;;;;;;;;5073445;28;20449;-75
2022/11/22 02:29:08;;;;;;;3.70;3.40;;;;;;;;;;5079256;28;20534;-76
2022/11/22 02:31:37;;;;;;;3.80;3.40;;;;;;;;;;5081273;28;20510;-75
2022/11/22 02:34:05;;;;;;;3.40;3.10;;;;;;;;;;5079836;28;20468;-77
2022/11/22 02:36:34;;;;;;;3.30;2.70;;;;;;;;;;5078225;28;20451;-75
2022/11/22 02:39:01;;;;;;;5.30;2.90;;;;;;;;;;5076349;28;21037;-76
2022/11/22 02:41:28;;;;;;;2.70;2.50;;;;;;;;;;5071622;28;20474;-76
2022/11/22 02:43:57;;;;;;;2.93;2.70;;;;;;;;;;5070184;28;20466;-76
2022/11/22 02:46:24;;;;;;;3.20;2.90;;;;;;;;;;5070581;28;20442;-76
2022/11/22 02:48:51;;;;;;;2.60;2.40;;;;;;;;;;5071120;28;20447;-76
2022/11/22 02:51:19;;;;;;;3.40;3.07;;;;;;;;;;5070997;28;20441;-75
2022/11/22 02:53:46;;;;;;;4.03;3.10;;;;;;;;;;5070610;28;20467;-76
2022/11/22 02:56:14;;;;;;;3.60;2.80;;;;;;;;;;5070786;28;20464;-76
2022/11/22 02:58:41;;;;;;;2.90;2.73;;;;;;;;;;5070736;28;20452;-76
2022/11/22 03:01:09;;;;;;;3.00;2.70;;;;;;;;;;5070274;28;20478;-76
2022/11/22 03:03:36;;;;;;;3.53;2.70;;;;;;;;;;5069450;28;20466;-77
2022/11/22 03:06:03;;;;;;;3.87;3.43;;;;;;;;;;5070187;28;20445;-76
2022/11/22 03:08:30;;;;;;;3.03;2.83;;;;;;;;;;5070539;28;20433;-76
2022/11/22 03:10:58;;;;;;;2.90;2.70;;;;;;;;;;5072628;28;20453;-75
2022/11/22 03:13:25;;;;;;;5.13;2.40;;;;;;;;;;5063647;28;20485;-76
2022/11/22 03:15:52;;;;;;;2.90;2.70;;;;;;;;;;5055103;28;20473;-76
2022/11/22 03:18:20;;;;;;;2.90;2.70;;;;;;;;;;5052356;28;20444;-76
2022/11/22 03:20:47;;;;;;;4.50;2.53;;;;;;;;;;5050184;28;20450;-76
2022/11/22 03:23:14;;;;;;;3.00;2.73;;;;;;;;;;5049718;28;20465;-76
2022/11/22 03:25:41;;;;;;;3.30;2.47;;;;;;;;;;5050279;28;20462;-77
2022/11/22 03:28:09;;;;;;;5.37;2.80;;;;;;;;;;5050132;28;20449;-76
2022/11/22 03:30:39;;;;;;;4.50;3.70;;;;;;;;;;5050562;28;20440;-75
2022/11/22 03:33:06;;;;;;;4.97;2.73;;;;;;;;;;5049480;28;20443;-76
2022/11/22 03:35:34;;;;;;;3.03;2.60;;;;;;;;;;5050905;28;20558;-75
2022/11/22 03:38:02;;;;;;;3.73;3.10;;;;;;;;;;5050306;28;20440;-76
2022/11/22 03:40:29;;;;;;;2.40;2.30;;;;;;;;;;5050527;28;20450;-75
2022/11/22 03:42:58;;;;;;;3.37;3.07;;;;;;;;;;5049312;28;20475;-76
2022/11/22 03:45:26;;;;;;;2.93;2.73;;;;;;;;;;5049809;28;20539;-75
2022/11/22 03:47:53;;;;;;;4.40;2.90;;;;;;;;;;5050294;28;20455;-76
2022/11/22 03:50:20;;;;;;;3.57;2.80;;;;;;;;;;5050133;28;20546;-75
2022/11/22 03:52:48;;;;;;;3.13;2.80;;;;;;;;;;5049399;28;20446;-76
2022/11/22 03:55:16;;;;;;;3.23;3.03;;;;;;;;;;5050245;28;20463;-75
2022/11/22 03:57:43;;;;;;;3.57;3.27;;;;;;;;;;5053923;28;20667;-76
2022/11/22 04:00:11;;;;;;;3.17;2.97;;;;;;;;;;5056860;28;20805;-76
2022/11/22 04:02:38;;;;;;;3.23;2.93;;;;;;;;;;5049792;28;20565;-75
2022/11/22 04:05:05;;;;;;;3.03;2.63;;;;;;;;;;5061854;28;20997;-77
2022/11/22 04:07:32;;;;;;;3.07;2.80;;;;;;;;;;5073985;28;20794;-78
2022/11/22 04:10:01;;;;;;;3.83;2.90;;;;;;;;;;5074620;28;20792;-75
2022/11/22 04:12:29;;;;;;;3.37;2.27;;;;;;;;;;5074539;28;20440;-75
2022/11/22 04:15:07;;;;;;;2.50;2.40;;;;;;;;;;5071612;28;20464;-75
2022/11/22 04:17:43;;;;;;;4.23;2.60;;;;;;;;;;5088547;28;20466;-76
2022/11/22 04:22:57;;;;;;;4.23;3.10;;;;;;;;;;5088664;28;20986;-76
2022/11/22 04:25:25;;;;;;;2.90;2.70;;;;;;;;;;5075866;28;20468;-75
2022/11/22 04:27:52;;;;;;;2.70;2.40;;;;;;;;;;5073924;28;20458;-77
2022/11/22 04:30:20;;;;;;;2.70;2.50;;;;;;;;;;5073620;28;20517;-75
2022/11/22 04:32:46;;;;;;;2.70;2.50;;;;;;;;;;5072787;28;20440;-75
2022/11/22 04:35:14;;;;;;;3.10;2.70;;;;;;;;;;5073582;28;20492;-75
2022/11/22 04:37:41;;;;;;;2.70;2.50;;;;;;;;;;5073444;28;20484;-76
2022/11/22 04:40:09;;;;;;;2.97;2.50;;;;;;;;;;5073296;28;20457;-76
2022/11/22 04:45:22;;;;;;;2.57;2.37;;;;;;;;;;5072930;28;20524;-76
2022/11/22 04:47:59;;;;;;;3.60;2.47;;;;;;;;;;5073418;28;20446;-77
2022/11/22 04:53:11;;;;;;;4.30;2.27;;;;;;;;;;5073408;28;20915;-77
2022/11/22 04:55:38;;;;;;;2.63;2.43;;;;;;;;;;5077971;28;20974;-76
2022/11/22 04:58:06;;;;;;;4.77;2.50;;;;;;;;;;5074114;28;20948;-78
2022/11/22 05:00:34;;;;;;;2.50;2.30;;;;;;;;;;5075293;28;20805;-77
2022/11/22 05:03:01;;;;;;;4.60;2.90;;;;;;;;;;5074665;28;20480;-76
2022/11/22 05:05:28;;;;;;;2.83;2.13;;;;;;;;;;5075235;28;20487;-76
2022/11/22 05:07:55;;;;;;;2.80;2.20;;;;;;;;;;5073262;28;20478;-77
2022/11/22 05:10:22;;;;;;;3.10;2.80;;;;;;;;;;5082002;28;20451;-76
2022/11/22 05:12:50;;;;;;;3.87;2.87;;;;;;;;;;5075075;28;20441;-76
2022/11/22 05:15:18;;;;;;;5.43;2.50;;;;;;;;;;5054259;28;20454;-75
2022/11/22 05:17:45;;;;;;;7.60;3.17;;;;;;;;;;5061194;28;20558;-77
2022/11/22 05:20:12;;;;;;;7.67;3.90;;;;;;;;;;5061101;28;20447;-76
2022/11/22 05:25:24;;;;;;;4.10;2.90;;;;;;;;;;5062372;28;20465;-76
2022/11/22 05:27:53;;;;;;;4.70;3.80;;;;;;;;;;5059408;28;20450;-75
2022/11/22 05:30:22;;;;;;;3.60;3.30;;;;;;;;;;5060683;28;20450;-77
2022/11/22 05:32:49;;;;;;;5.00;3.17;;;;;;;;;;5066475;28;20440;-77
2022/11/22 05:35:16;;;;;;;2.83;2.63;;;;;;;;;;5053764;28;20470;-77
2022/11/22 05:37:44;;;;;;;3.33;3.03;;;;;;;;;;5053533;28;20431;-77
2022/11/22 05:40:11;;;;;;;5.63;3.53;;;;;;;;;;5068281;28;20438;-75
2022/11/22 05:42:38;;;;;;;4.10;3.33;;;;;;;;;;5077027;28;20467;-75
2022/11/22 05:45:06;;;;;;;8.67;4.33;;;;;;;;;;5076988;28;20466;-75
2022/11/22 05:47:35;;;;;;;4.27;2.93;;;;;;;;;;5079446;28;20445;-76
2022/11/22 05:50:02;;;;;;;4.00;3.27;;;;;;;;;;5086403;28;20442;-75
2022/11/22 05:52:29;;;;;;;4.23;2.60;;;;;;;;;;5096886;28;20454;-76
2022/11/22 05:54:56;;;;;;;7.07;2.93;;;;;;;;;;5077502;28;20453;-75
2022/11/22 05:57:23;;;;;;;5.53;3.30;;;;;;;;;;5077337;28;20442;-76
2022/11/22 05:59:50;;;;;;;3.97;2.57;;;;;;;;;;5073787;28;20441;-76
2022/11/22 06:02:18;;;;;;;7.30;3.43;;;;;;;;;;5074990;28;20491;-75
2022/11/22 06:04:46;;;;;;;8.07;3.60;;;;;;;;;;5072784;28;20468;-76
2022/11/22 06:07:13;;;;;;;4.03;2.70;;;;;;;;;;5073859;28;20455;-76
2022/11/22 06:09:40;;;;;;;5.53;3.07;;;;;;;;;;5073238;28;20448;-77
2022/11/22 06:12:08;;;;;;;4.37;2.67;;;;;;;;;;5073173;28;20438;-77
2022/11/22 06:14:35;;;;;;;4.47;2.83;;;;;;;;;;5054571;28;20469;-76
2022/11/22 06:17:02;;;;;;;4.20;2.70;;;;;;;;;;5052128;28;20447;-76
2022/11/22 06:19:29;;;;;;;5.60;3.03;;;;;;;;;;5051855;28;20477;-75
2022/11/22 06:21:57;;;;;;;6.57;3.30;;;;;;;;;;5052144;28;20478;-76
2022/11/22 06:24:24;;;;;;;6.37;3.13;;;;;;;;;;5050868;28;20488;-77
2022/11/22 06:26:51;;;;;;;5.73;3.10;;;;;;;;;;5051729;28;20444;-76
2022/11/22 06:29:19;;;;;;;3.97;3.37;;;;;;;;;;5058176;28;20452;-76
2022/11/22 06:31:46;;;;;;;5.57;3.10;;;;;;;;;;5051206;28;20445;-76
2022/11/22 06:34:13;;;;;;;4.27;3.63;;;;;;;;;;5050754;28;20557;-75
2022/11/22 06:36:40;;;;;;;5.43;3.20;;;;;;;;;;5051816;28;20454;-75
2022/11/22 06:39:08;;;;;;;4.30;3.50;;;;;;;;;;5051784;28;20469;-76
2022/11/22 06:41:37;;;;;;;3.63;2.67;;;;;;;;;;5056707;28;20448;-75
2022/11/22 06:44:05;;;;;;;8.10;3.67;;;;;;;;;;5063087;28;20473;-77
2022/11/22 06:46:32;;;;;;;9.27;3.70;;;;;;;;;;5051443;28;20449;-76
2022/11/22 06:48:59;;;;;;;7.63;3.37;;;;;;;;;;5051686;28;20814;-77
2022/11/22 06:51:27;;;;;;;3.67;2.70;;;;;;;;;;5051458;28;20446;-77
2022/11/22 06:53:54;;;;;;;6.83;3.00;;;;;;;;;;5051221;28;20477;-77
2022/11/22 06:56:24;;;;;;;4.97;2.80;;;;;;;;;;5051351;28;20541;-77
2022/11/22 06:58:52;;;;;;;4.40;3.03;;;;;;;;;;5051868;28;20446;-77
2022/11/22 07:01:19;;;;;;;3.30;3.00;;;;;;;;;;5052501;28;20804;-76
2022/11/22 07:03:47;;;;;;;4.90;3.27;;;;;;;;;;5052695;28;20483;-77
2022/11/22 07:06:14;;;;;;;7.20;4.27;;;;;;;;;;5053068;28;20443;-75
2022/11/22 07:08:42;;;;;;;9.60;7.07;;;;;;;;;;5053076;28;20830;-76
2022/11/22 07:11:10;;;;;;;5.10;3.50;;;;;;;;;;5067238;28;20533;-76
2022/11/22 07:13:40;;;;;;;6.60;4.10;;;;;;;;;;5062580;28;20494;-75
2022/11/22 07:16:08;;;;;;;10.47;3.93;;;;;;;;;;5059733;28;20470;-77
2022/11/22 07:18:43;;;;;;;7.40;4.00;;;;;;;;;;5064841;28;20457;-74
2022/11/22 07:21:12;;;;;;;6.50;3.87;;;;;;;;;;5069563;28;20799;-75
2022/11/22 07:26:21;;;;;;;8.03;3.63;;;;;;;;;;5064021;28;20438;-75
2022/11/22 07:28:49;;;;;;;6.03;3.60;;;;;;;;;;5058730;28;20450;-76
2022/11/22 07:31:17;;;;;;;7.47;4.10;;;;;;;;;;5054017;28;20450;-76
2022/11/22 07:33:44;;;;;;;5.90;3.60;;;;;;;;;;5055297;28;20472;-77
2022/11/22 07:36:12;;;;;;;5.07;4.03;;;;;;;;;;5060100;28;20463;-78
2022/11/22 07:38:39;;;;;;;7.80;4.33;;;;;;;;;;5058487;28;20445;-77
2022/11/22 07:41:07;;;;;;;9.90;4.40;;;;;;;;;;5056581;28;20436;-77
2022/11/22 07:43:34;;;;;;;11.20;3.30;;;;;;;;;;5057339;28;20496;-76
2022/11/22 07:46:03;;;;;;;8.80;3.40;;;;;;;;;;5057701;28;20451;-77
2022/11/22 07:48:30;;;;;;;5.40;3.00;;;;;;;;;;5055771;28;20446;-77
2022/11/22 07:50:57;;;;;;;9.03;3.30;;;;;;;;;;5055215;28;20562;-76
2022/11/22 07:53:24;;;;;;;8.37;4.53;;;;;;;;;;5053106;28;20791;-76
2022/11/22 07:55:51;;;;;;;5.83;3.33;;;;;;;;;;5053497;28;20431;-77
2022/11/22 07:58:19;;;;;;;5.23;3.20;;;;;;;;;;5052556;28;20449;-76
2022/11/22 08:00:46;;;;;;;6.90;3.13;;;;;;;;;;5057955;28;20550;-76
2022/11/22 08:03:14;;;;;;;3.57;3.03;;;;;;;;;;5058942;28;20483;-77
2022/11/22 08:05:42;;;;;;;6.00;2.70;;;;;;;;;;5060482;28;20442;-76
2022/11/22 08:08:09;;;;;;;5.63;2.80;;;;;;;;;;5060607;28;20487;-75
2022/11/22 08:10:36;;;;;;;3.23;2.93;;;;;;;;;;5071169;28;20821;-77
2022/11/22 08:13:04;;;;;;;6.70;2.73;;;;;;;;;;5071062;28;20448;-76
2022/11/22 08:15:32;;;;;;;5.03;2.83;;;;;;;;;;5073545;28;20815;-76
2022/11/22 08:17:59;;;;;;;5.87;3.10;;;;;;;;;;5079399;28;20454;-76
2022/11/22 08:20:27;;;;;;;6.33;3.13;;;;;;;;;;5074330;28;20446;-76
2022/11/22 08:22:54;;;;;;;6.97;3.43;;;;;;;;;;5074791;28;20475;-77
2022/11/22 08:25:21;;;;;;;9.97;3.50;;;;;;;;;;5079141;28;20467;-77
2022/11/22 08:27:48;;;;;;;6.37;3.10;;;;;;;;;;5074411;28;20457;-77
2022/11/22 08:30:16;;;;;;;5.03;3.30;;;;;;;;;;5071631;28;20447;-76
2022/11/22 08:32:43;;;;;;;4.53;2.90;;;;;;;;;;5070210;28;20799;-77
2022/11/22 08:35:10;;;;;;;9.23;4.03;;;;;;;;;;5071541;28;20988;-77
2022/11/22 08:37:38;;;;;;;8.97;3.53;;;;;;;;;;5073898;28;20448;-75
2022/11/22 08:40:06;;;;;;;7.20;3.50;;;;;;;;;;5070587;28;20438;-77
2022/11/22 08:42:33;;;;;;;4.90;3.00;;;;;;;;;;5066184;28;20501;-77
2022/11/22 08:45:00;;;;;;;6.00;3.00;;;;;;;;;;5071254;28;20477;-77
2022/11/22 08:47:27;;;;;;;4.10;3.50;;;;;;;;;;5073782;28;20451;-76
2022/11/22 08:49:54;;;;;;;8.57;2.97;;;;;;;;;;5075631;28;20450;-76
2022/11/22 08:52:21;;;;;;;3.97;2.93;;;;;;;;;;5074479;28;20453;-76
2022/11/22 08:54:50;;;;;;;9.83;3.40;;;;;;;;;;5073848;28;20467;-77
2022/11/22 08:57:17;;;;;;;3.87;2.90;;;;;;;;;;5073411;28;20467;-77
2022/11/22 08:59:44;;;;;;;6.43;3.73;;;;;;;;;;5074574;28;20455;-77
2022/11/22 09:02:11;;;;;;;6.80;3.17;;;;;;;;;;5073834;28;20453;-76
2022/11/22 09:04:38;;;;;;;7.20;3.33;;;;;;;;;;5072578;28;20464;-77
2022/11/22 09:07:05;;;;;;;7.00;3.67;;;;;;;;;;5073373;28;20440;-76
2022/11/22 09:09:33;;;;;;;5.67;3.20;;;;;;;;;;5067580;28;20438;-77
2022/11/22 09:12:01;;;;;;;7.80;3.93;;;;;;;;;;5067466;28;20436;-76
2022/11/22 09:14:28;;;;;;;5.37;3.10;;;;;;;;;;5073606;28;20490;-77
2022/11/22 09:16:56;;;;;;;13.17;3.17;;;;;;;;;;5074692;28;20437;-75
2022/11/22 09:19:23;;;;;;;5.60;3.10;;;;;;;;;;5075420;28;21050;-76
2022/11/22 09:21:50;;;;;;;4.40;3.30;;;;;;;;;;5074343;28;20460;-77
2022/11/22 09:24:17;;;;;;;3.90;3.20;;;;;;;;;;5077240;28;20501;-77
2022/11/22 09:26:44;;;;;;;6.90;3.53;;;;;;;;;;5075451;28;20458;-77
2022/11/22 09:29:14;;;;;;;7.73;3.10;;;;;;;;;;5073173;28;20452;-76
2022/11/22 09:31:41;;;;;;;5.47;3.37;;;;;;;;;;5073368;28;20488;-77
2022/11/22 09:34:08;;;;;;;6.20;2.70;;;;;;;;;;5069666;28;20831;-76
2022/11/22 09:36:35;;;;;;;6.70;2.63;;;;;;;;;;5070713;28;20812;-78
2022/11/22 09:39:03;;;;;;;4.37;2.90;;;;;;;;;;5083485;28;20456;-76
2022/11/22 09:41:53;;;;;;;6.50;3.27;;;;;;;;;;5084831;28;20451;-76
2022/11/22 09:44:29;;;;;;;5.70;3.07;;;;;;;;;;5090098;28;20590;-76
2022/11/22 09:46:58;;;;;;;4.03;2.33;;;;;;;;;;5084932;28;20438;-77
2022/11/22 09:49:29;;;;;;;6.37;3.57;;;;;;;;;;5074497;28;20443;-78
2022/11/22 09:52:00;;;;;;;7.47;3.07;;;;;;;;;;5077413;28;20443;-77
2022/11/22 09:54:29;;;;;;;8.60;3.13;;;;;;;;;;5075242;28;20476;-76
2022/11/22 09:56:58;;;;;;;7.80;3.57;;;;;;;;;;5076135;28;20456;-77
2022/11/22 09:59:30;;;;;;;2.67;2.20;;;;;;;;;;5080444;28;20448;-76
2022/11/22 10:01:59;;;;;;;5.40;3.40;;;;;;;;;;5079193;28;20886;-77
2022/11/22 10:04:29;;;;;;;7.93;3.87;;;;;;;;;;5078202;28;20860;-78
2022/11/22 10:06:59;;;;;;;5.03;3.20;;;;;;;;;;5079035;28;20452;-77
2022/11/22 10:09:31;;;;;;;7.40;3.20;;;;;;;;;;5078557;28;20467;-76
2022/11/22 10:12:02;;;;;;;7.87;3.50;;;;;;;;;;5079265;28;20429;-77
2022/11/22 10:14:35;;;;;;;5.10;3.30;;;;;;;;;;5077857;28;20474;-78
2022/11/22 10:17:17;;;;;;;6.57;3.13;;;;;;;;;;5078976;28;20429;-77
2022/11/22 10:19:46;;;;;;;4.20;2.83;;;;;;;;;;5079023;28;20432;-77
2022/11/22 10:22:13;;;;;;;5.60;3.20;;;;;;;;;;5077487;28;20449;-77
2022/11/22 10:24:41;;;;;;;6.03;2.90;;;;;;;;;;5074428;28;21015;-76
2022/11/22 10:27:12;;;;;;;3.80;2.30;;;;;;;;;;5073224;28;20476;-77
2022/11/22 10:29:43;;;;;;;6.93;3.23;;;;;;;;;;5072994;28;20447;-77
2022/11/22 10:32:15;;;;;;;5.10;2.93;;;;;;;;;;5073346;28;20450;-76
2022/11/22 10:34:50;;;;;;;8.03;3.13;;;;;;;;;;5072343;28;20464;-78
2022/11/22 10:37:23;;;;;;;4.63;3.27;;;;;;;;;;5072333;28;20948;-77
2022/11/22 10:39:56;;;;;;;5.00;2.30;;;;;;;;;;5072401;28;20927;-78
2022/11/22 10:42:29;;;;;;;5.00;2.67;;;;;;;;;;5072666;28;20530;-78
2022/11/22 10:45:02;;;;;;;5.90;2.70;;;;;;;;;;5072649;28;20480;-78
2022/11/22 10:47:42;;;;;;;6.70;2.87;;;;;;;;;;5072244;28;20425;-77
2022/11/22 10:50:13;;;;;;;6.47;2.97;;;;;;;;;;5072131;28;20439;-78
2022/11/22 10:52:44;;;;;;;5.17;2.70;;;;;;;;;;5071882;28;20425;-77
2022/11/22 10:55:18;;;;;;;5.20;2.67;;;;;;;;;;5071636;28;20486;-76
2022/11/22 10:57:49;;;;;;;4.60;2.70;;;;;;;;;;5071990;28;20428;-78
2022/11/22 11:00:20;;;;;;;8.03;2.87;;;;;;;;;;5089695;28;20433;-77
2022/11/22 11:03:02;;;;;;;4.20;2.47;;;;;;;;;;5078773;28;20800;-77
2022/11/22 11:05:31;;;;;;;5.40;2.30;;;;;;;;;;5077736;28;20466;-76
2022/11/22 11:07:58;;;;;;;5.00;2.70;;;;;;;;;;5092817;28;20432;-76
2022/11/22 11:10:27;;;;;;;10.20;6.70;;;;;;;;;;5093808;28;20478;-76
2022/11/22 11:12:56;;;;;;;3.27;2.97;;;;;;;;;;5069586;28;20479;-77
2022/11/22 11:15:28;;;;;;;7.70;2.63;;;;;;;;;;5052276;28;20466;-77
2022/11/22 11:17:59;;;;;;;6.47;2.90;;;;;;;;;;5062892;28;20982;-77
2022/11/22 11:20:27;;;;;;;2.83;1.87;;;;;;;;;;5073137;28;20451;-78
2022/11/22 11:22:54;;;;;;;8.90;2.00;;;;;;;;;;5064028;28;20523;-77
2022/11/22 11:25:28;;;;;;;3.80;2.20;;;;;;;;;;5072998;28;20515;-78
2022/11/22 11:27:57;;;;;;;3.63;1.97;;;;;;;;;;5073231;28;20658;-77
2022/11/22 11:30:25;;;;;;;5.90;2.37;;;;;;;;;;5071445;28;20454;-78
2022/11/22 11:32:53;;;;;;;4.43;2.00;;;;;;;;;;5071359;28;20455;-78
2022/11/22 11:35:21;;;;;;;10.53;1.90;;;;;;;;;;5072139;28;20457;-78
2022/11/22 11:37:49;;;;;;;2.87;2.10;;;;;;;;;;5065344;28;20492;-78
2022/11/22 11:40:27;;;;;;;4.17;2.10;;;;;;;;;;5072385;28;20495;-78
2022/11/22 11:43:09;;;;;;;6.07;2.60;;;;;;;;;;5074399;28;20456;-79
2022/11/22 11:45:37;;;;;;;5.30;2.60;;;;;;;;;;5074792;28;20437;-78
2022/11/22 11:48:06;;;;;;;4.53;2.50;;;;;;;;;;5076185;28;20452;-78
2022/11/22 11:50:33;;;;;;;5.53;2.63;;;;;;;;;;5074350;28;20821;-80
2022/11/22 11:53:03;;;;;;;9.37;3.60;;;;;;;;;;5073942;28;20417;-78
2022/11/22 11:55:31;;;;;;;5.77;2.23;;;;;;;;;;5073160;28;20471;-78
2022/11/22 11:57:58;;;;;;;6.80;3.60;;;;;;;;;;5073546;28;20973;-78
2022/11/22 12:00:27;;;;;;;3.30;2.30;;;;;;;;;;5071364;28;20437;-80
2022/11/22 12:02:59;;;;;;;3.10;2.00;;;;;;;;;;5070923;28;20770;-79
2022/11/22 12:05:27;;;;;;;7.80;2.20;;;;;;;;;;5072624;28;20488;-77
2022/11/22 12:07:54;;;;;;;7.80;2.60;;;;;;;;;;5069413;28;20936;-77
2022/11/22 12:10:32;;;;;;;3.47;2.10;;;;;;;;;;5055457;28;20452;-79
2022/11/22 12:13:02;;;;;;;3.20;1.80;;;;;;;;;;5054495;28;20425;-79
2022/11/22 12:15:34;;;;;;;5.73;2.10;;;;;;;;;;5056478;28;20544;-78
2022/11/22 12:18:07;;;;;;;3.30;1.63;;;;;;;;;;5060026;28;20464;-78
2022/11/22 12:20:42;;;;;;;4.73;1.97;;;;;;;;;;5059837;28;20456;-78
2022/11/22 12:23:15;;;;;;;3.93;1.70;;;;;;;;;;5057253;28;20537;-78
2022/11/22 12:25:43;;;;;;;5.30;2.30;;;;;;;;;;5074539;28;20428;-78
2022/11/22 12:28:13;;;;;;;7.30;1.93;;;;;;;;;;5075145;28;20443;-79
2022/11/22 12:30:41;;;;;;;4.30;1.83;;;;;;;;;;5076432;28;20473;-78
2022/11/22 12:33:14;;;;;;;4.93;2.17;;;;;;;;;;5078245;28;20824;-78
2022/11/22 12:35:43;;;;;;;5.77;2.47;;;;;;;;;;5078319;28;20821;-77
2022/11/22 12:38:13;;;;;;;9.13;2.47;;;;;;;;;;5078277;28;20436;-79
2022/11/22 12:40:42;;;;;;;4.10;2.67;;;;;;;;;;5078388;28;20432;-77
2022/11/22 12:43:12;;;;;;;5.50;2.10;;;;;;;;;;5076796;28;20717;-79
2022/11/22 12:45:41;;;;;;;7.17;1.80;;;;;;;;;;5076046;28;20475;-76
2022/11/22 12:48:14;;;;;;;5.10;1.80;;;;;;;;;;5075244;28;20939;-78
2022/11/22 12:50:44;;;;;;;6.53;2.60;;;;;;;;;;5075455;28;20441;-78
2022/11/22 12:53:13;;;;;;;5.90;2.87;;;;;;;;;;5075858;28;20455;-78
2022/11/22 12:55:44;;;;;;;4.47;1.80;;;;;;;;;;5076015;28;20437;-79
2022/11/22 12:58:17;;;;;;;7.43;2.47;;;;;;;;;;5076247;28;20448;-78
2022/11/22 13:00:59;;;;;;;7.67;2.30;;;;;;;;;;5074737;28;20435;-78
2022/11/22 13:03:30;;;;;;;4.50;1.87;;;;;;;;;;5075071;28;20455;-78
2022/11/22 13:05:59;;;;;;;3.30;1.70;;;;;;;;;;5076015;28;20448;-80
2022/11/22 13:08:29;;;;;;;6.43;2.50;;;;;;;;;;5074945;28;20987;-77
2022/11/22 13:10:59;;;;;;;6.63;2.03;;;;;;;;;;5077368;28;20445;-81
2022/11/22 13:13:28;;;;;;;5.17;1.60;;;;;;;;;;5067748;28;21119;-77
2022/11/22 13:15:56;;;;;;;2.70;1.80;;;;;;;;;;5061244;28;20441;-78
2022/11/22 13:18:26;;;;;;;1.90;1.43;;;;;;;;;;5054888;28;20445;-78
2022/11/22 13:20:58;;;;;;;4.60;1.70;;;;;;;;;;5058385;28;20444;-77
2022/11/22 13:23:36;;;;;;;5.57;1.50;;;;;;;;;;5059372;28;20452;-78
2022/11/22 13:26:07;;;;;;;2.50;1.60;;;;;;;;;;5055632;28;20813;-78
2022/11/22 13:28:37;;;;;;;4.17;2.07;;;;;;;;;;5055347;28;20509;-79
2022/11/22 13:31:06;;;;;;;3.43;2.10;;;;;;;;;;5054763;28;20445;-77
2022/11/22 13:33:33;;;;;;;2.07;1.30;;;;;;;;;;5054288;28;20640;-78
2022/11/22 13:36:19;;;;;;;2.83;1.70;;;;;;;;;;5053329;28;20460;-77
2022/11/22 13:38:48;;;;;;;2.50;1.50;;;;;;;;;;5053765;28;20440;-77
2022/11/22 13:41:22;;;;;;;2.20;1.40;;;;;;;;;;5054831;28;20437;-77
2022/11/22 13:43:54;;;;;;;3.03;1.43;;;;;;;;;;5054508;28;20951;-77
2022/11/22 13:46:40;;;;;;;5.90;2.13;;;;;;;;;;5055541;28;20452;-78
2022/11/22 13:49:08;;;;;;;4.20;1.83;;;;;;;;;;5053812;28;20442;-77
2022/11/22 13:51:53;;;;;;;1.50;1.17;;;;;;;;;;5054377;28;20932;-77
2022/11/22 13:54:35;;;;;;;4.43;1.97;;;;;;;;;;5053527;28;20522;-77
2022/11/22 13:57:04;;;;;;;2.50;1.30;;;;;;;;;;5053280;28;20655;-77
2022/11/22 13:59:32;;;;;;;4.17;1.77;;;;;;;;;;5052754;28;20450;-78
2022/11/22 14:02:00;;;;;;;1.53;1.43;;;;;;;;;;5053026;28;20437;-76
2022/11/22 14:04:30;;;;;;;3.27;1.77;;;;;;;;;;5052832;28;20485;-78
2022/11/22 14:07:00;;;;;;;3.70;1.50;;;;;;;;;;5053618;28;20468;-76
2022/11/22 14:09:32;;;;;;;2.00;1.47;;;;;;;;;;5054039;28;20438;-77
2022/11/22 14:12:14;;;;;;;1.90;1.40;;;;;;;;;;5053938;28;20790;-79
2022/11/22 14:14:46;;;;;;;2.37;1.50;;;;;;;;;;5071439;28;20468;-77
2022/11/22 14:17:17;;;;;;;3.10;1.40;;;;;;;;;;5073556;28;20448;-77
2022/11/22 14:19:52;;;;;;;3.03;1.40;;;;;;;;;;5072508;28;20942;-78
2022/11/22 14:22:25;;;;;;;6.43;1.90;;;;;;;;;;5072569;28;20436;-76
2022/11/22 14:25:02;;;;;;;3.53;1.80;;;;;;;;;;5072019;28;20490;-77
2022/11/22 14:27:36;;;;;;;3.93;1.60;;;;;;;;;;5073308;28;20451;-78
2022/11/22 14:30:07;;;;;;;3.90;1.53;;;;;;;;;;5072477;28;20459;-77
2022/11/22 14:32:49;;;;;;;2.00;1.90;;;;;;;;;;5072407;28;20859;-77
2022/11/22 14:35:21;;;;;;;1.53;1.40;;;;;;;;;;5072347;28;20976;-77
2022/11/22 14:37:57;;;;;;;1.50;0.97;;;;;;;;;;5072074;28;20444;-77
2022/11/22 14:40:32;;;;;;;1.40;1.30;;;;;;;;;;5073214;28;20439;-77
2022/11/22 14:43:02;;;;;;;2.20;1.23;;;;;;;;;;5072831;28;20448;-78
2022/11/22 14:45:36;;;;;;;1.30;1.20;;;;;;;;;;5072518;28;20857;-78
2022/11/22 14:48:05;;;;;;;2.93;1.20;;;;;;;;;;5072821;28;20426;-77
2022/11/22 14:50:34;;;;;;;2.33;1.20;;;;;;;;;;5071886;28;20456;-78
2022/11/22 14:53:05;;;;;;;1.80;1.20;;;;;;;;;;5071220;28;20447;-77
2022/11/22 14:55:33;;;;;;;2.60;1.47;;;;;;;;;;5071742;28;20878;-79
2022/11/22 14:58:03;;;;;;;3.93;1.70;;;;;;;;;;5071710;28;20456;-77
2022/11/22 15:00:38;;;;;;;1.33;1.23;;;;;;;;;;5073295;28;20444;-79
2022/11/22 15:03:14;;;;;;;3.47;1.50;;;;;;;;;;5071899;28;20451;-77
2022/11/22 15:05:54;;;;;;;3.17;1.37;;;;;;;;;;5072062;28;20883;-78
2022/11/22 15:08:25;;;;;;;1.53;1.43;;;;;;;;;;5071621;28;20535;-77